Main page
METAR-TAF:

METAR-TAF

Airports :

Baghdad, Iraq

Baghdad International Airport

latitude: 33-15-45N, longitude: 44-14-04E, elevation: 35 m

Current weather observation

The report was made 5 minutes ago, at 16:00 UTC
Wind 4 kt from variable directions
Temperature 29°C
Humidity 27%
Pressure 1010 hPa
Visibility 10 km or more
no clouds below 1500 m and no cumulonimbus

METAR: ORBI 251600Z VRB04KT CAVOK 29/08 Q1010 NOSIG

Time: 19:05 (16:05 UTC)

Forecast

The report was made 6 hours and 5 minutes ago, at 10:00 UTC
Forecast valid from 25 at 12 UTC to 26 at 12 UTC
Wind 4 kt from variable directions
Visibility: 7000 m
Scattered clouds at a height of 4000 ft

TAF: ORBI 251000Z 2512/2612 VRB04KT 7000 SCT040

Weather observations and forecasts of more than 4000 airports (METAR and TAF reports).

The available stations are represented by yellow and red dots on the map.

Hover mouse over dot to see the name of the station.

Then click to see weather observations and forecasts.

To change the map : click on the green buttons with a black cross to zoom in, on the green button with a dash to zoom out, or on the green arrows for adjacent maps.


METAR-TAF: